Statsraad Lehmkuhl — LDRG — position and weather

sailwx.info

Track history (hours):
 
Tides and Currents Weather Stations Pressure Air Temp Water Temp Dewpoint Dewpoint Depression Visibility Wind Speed Wind Dir Waves Ship Positions

Statsraad Lehmkuhl (Norway)

Ship's website: http://www.lehmkuhl.no/eng/index.cfm

Last reported at 2019-Aug-24 19:30 UTC. Time now 2019-Aug-24 19:53 UTC.
Position N 60°24' E 005°18'.

Length 85 m; draft 5.5 m.

Type: Sailing vessel. MMSI: 258113000.

Date/timePositionNaut miles runAvg speedWind from/ knotsBaromVisibWave heightAir tempDewpointWater temp
2019-Aug-24 19:30N 60°24' E 005°18'2 3.4
2019-Aug-24 19:00N 60°24' E 005°15'2 3.4
2019-Aug-24 18:30N 60°23' E 005°12'2 4.8
2019-Aug-24 18:00N 60°24' E 005°07'2 4.1
2019-Aug-24 17:30N 60°25' E 005°04'2 4.3
2019-Aug-24 17:00N 60°25' E 005°08'2 4.5
2019-Aug-24 16:30N 60°24' E 005°12'2 4.6
2019-Aug-24 16:00N 60°24' E 005°16'2 3.2
2019-Aug-24 15:30N 60°24' E 005°19'0 0.0
2019-Aug-24 15:00N 60°24' E 005°19'0 0.0
2019-Aug-24 14:30N 60°24' E 005°19'0 0.0
2019-Aug-24 14:00N 60°24' E 005°19'0 0.0
2019-Aug-24 13:30N 60°24' E 005°19'0 0.0
2019-Aug-24 13:00N 60°24' E 005°19'0 0.0
2019-Aug-24 12:30N 60°24' E 005°19'0 0.0
2019-Aug-24 12:00N 60°24' E 005°19'0 0.0
2019-Aug-24 11:30N 60°24' E 005°19'0 0.0
2019-Aug-24 11:00N 60°24' E 005°19'0 0.0
2019-Aug-24 10:31N 60°24' E 005°19'0 0.0
2019-Aug-24 10:00N 60°24' E 005°19'0 0.0
2019-Aug-24 09:30N 60°24' E 005°19'0 0.0
2019-Aug-24 09:01N 60°24' E 005°19'0 0.0
2019-Aug-24 08:30N 60°24' E 005°19'0 0.0
2019-Aug-24 08:00N 60°24' E 005°19'0 0.0
2019-Aug-24 07:30N 60°24' E 005°19'0 0.0
2019-Aug-24 07:00N 60°24' E 005°19'0 0.0
2019-Aug-24 06:30N 60°24' E 005°19'0 0.0
2019-Aug-24 06:00N 60°24' E 005°19'0 0.0
2019-Aug-24 05:30N 60°24' E 005°19'0 0.0
2019-Aug-24 05:00N 60°24' E 005°19'0 0.0
2019-Aug-24 04:30N 60°24' E 005°19'0 0.0
2019-Aug-24 04:00N 60°24' E 005°19'0 0.0
2019-Aug-24 03:30N 60°24' E 005°19'0 0.0
2019-Aug-24 03:00N 60°24' E 005°19'0 0.0
2019-Aug-24 02:30N 60°24' E 005°19'0 0.0
2019-Aug-24 02:00N 60°24' E 005°19'0 0.0
2019-Aug-24 01:31N 60°24' E 005°19'0 0.0
2019-Aug-24 01:00N 60°24' E 005°19'0 0.0
2019-Aug-24 00:30N 60°24' E 005°19'0 0.0
2019-Aug-24 00:00N 60°24' E 005°19'0 0.0
2019-Aug-23 23:30N 60°24' E 005°19'0 0.0
2019-Aug-23 23:00N 60°24' E 005°19'0 0.0
2019-Aug-23 22:30N 60°24' E 005°19'0 0.0
2019-Aug-23 22:00N 60°24' E 005°19'0 0.0
2019-Aug-23 21:31N 60°24' E 005°19'0 0.0
2019-Aug-23 21:00N 60°24' E 005°19'0 0.0
2019-Aug-23 20:30N 60°24' E 005°19'0 0.0
2019-Aug-23 20:00N 60°24' E 005°19'1 1.1
2019-Aug-23 19:30N 60°24' E 005°18'2 3.8
2019-Aug-23 19:00N 60°24' E 005°14'2 3.8
2019-Aug-23 18:30N 60°23' E 005°11'3 5.1
2019-Aug-23 18:00N 60°24' E 005°07'2 3.5
2019-Aug-23 17:30N 60°26' E 005°04'2 4.8
2019-Aug-23 17:00N 60°24' E 005°09'2 4.1
2019-Aug-23 16:30N 60°24' E 005°13'2 3.9
2019-Aug-23 16:00N 60°24' E 005°16'2 3.1
2019-Aug-23 15:30N 60°24' E 005°19'0 0.0
2019-Aug-23 15:01N 60°24' E 005°19'0 0.0
2019-Aug-23 14:30N 60°24' E 005°19'0 0.0
2019-Aug-23 14:00N 60°24' E 005°19'0 0.0
2019-Aug-23 13:30N 60°24' E 005°19'0 0.0
2019-Aug-23 13:00N 60°24' E 005°19'0 0.0
2019-Aug-23 12:30N 60°24' E 005°19'0 0.0
2019-Aug-23 12:00N 60°24' E 005°19'0 0.0
2019-Aug-23 11:30N 60°24' E 005°19'0 0.0
2019-Aug-23 11:00N 60°24' E 005°19'0 0.0
2019-Aug-23 10:30N 60°24' E 005°19'0 0.0
2019-Aug-23 10:00N 60°24' E 005°19'0 0.0
2019-Aug-23 09:30N 60°24' E 005°19'0 0.0
2019-Aug-23 09:00N 60°24' E 005°19'0 0.0
2019-Aug-23 08:30N 60°24' E 005°19'0 0.0
2019-Aug-23 08:00N 60°24' E 005°19'0 0.0
2019-Aug-23 07:30N 60°24' E 005°19'0 0.0
2019-Aug-23 07:00N 60°24' E 005°19'0 0.0
2019-Aug-23 06:30N 60°24' E 005°19'0 0.0
2019-Aug-23 06:01N 60°24' E 005°19'0 0.0
2019-Aug-23 05:30N 60°24' E 005°19'0 0.0
2019-Aug-23 05:01N 60°24' E 005°19'0 0.0
2019-Aug-23 04:30N 60°24' E 005°19'0 0.0
2019-Aug-23 03:59N 60°24' E 005°19'0 0.0
2019-Aug-23 03:31N 60°24' E 005°19'0 0.0
2019-Aug-23 03:00N 60°24' E 005°19'0 0.0
2019-Aug-23 02:30N 60°24' E 005°19'0 0.0
2019-Aug-23 02:00N 60°24' E 005°19'0 0.0
2019-Aug-23 01:30N 60°24' E 005°19'0 0.0
2019-Aug-23 01:00N 60°24' E 005°19'0 0.0
2019-Aug-23 00:30N 60°24' E 005°19'0 0.0
2019-Aug-23 00:00N 60°24' E 005°19'0 0.0
2019-Aug-22 23:30N 60°24' E 005°19'0 0.0
2019-Aug-22 23:00N 60°24' E 005°19'0 0.0
2019-Aug-22 22:31N 60°24' E 005°19'0 0.0
2019-Aug-22 21:59N 60°24' E 005°19'0 0.0
2019-Aug-22 21:30N 60°24' E 005°19'0 0.0
2019-Aug-22 21:00N 60°24' E 005°19'0 0.0
2019-Aug-22 20:30N 60°24' E 005°19'0 0.0
2019-Aug-22 20:00N 60°24' E 005°19'1 1.1
2019-Aug-22 19:30N 60°24' E 005°18'2 3.9
2019-Aug-22 19:00N 60°24' E 005°14'2 4.3
2019-Aug-22 18:30N 60°23' E 005°10'2 3.2
2019-Aug-22 18:01N 60°24' E 005°08'2 4.4
2019-Aug-22 17:30N 60°25' E 005°04'2 4.1
2019-Aug-22 17:00N 60°26' E 005°08'3 5.5
2019-Aug-22 16:30N 60°23' E 005°11'1 2.7
2019-Aug-22 15:59N 60°24' E 005°14'2 5.1
2019-Aug-22 15:31N 60°24' E 005°19'0 0.5
2019-Aug-22 15:00N 60°24' E 005°19'0 0.0
2019-Aug-22 14:30N 60°24' E 005°19'0 0.0
2019-Aug-22 14:00N 60°24' E 005°19'0 0.0
2019-Aug-22 13:30N 60°24' E 005°19'0 0.0
2019-Aug-22 13:00N 60°24' E 005°19'0 0.0
2019-Aug-22 12:30N 60°24' E 005°19'0 0.0
2019-Aug-22 11:59N 60°24' E 005°19'0 0.0
2019-Aug-22 11:30N 60°24' E 005°19'0 0.0
2019-Aug-22 11:00N 60°24' E 005°19'0 0.0
2019-Aug-22 10:30N 60°24' E 005°19'0 0.0
2019-Aug-22 10:00N 60°24' E 005°19'0 0.0
2019-Aug-22 09:30N 60°24' E 005°19'0 0.0
2019-Aug-22 09:00N 60°24' E 005°19'0 0.0
2019-Aug-22 08:30N 60°24' E 005°19'0 0.0
2019-Aug-22 08:00N 60°24' E 005°19'0 0.0
2019-Aug-22 07:30N 60°24' E 005°19'0 0.0
2019-Aug-22 07:00N 60°24' E 005°19'0 0.0
2019-Aug-22 06:30N 60°24' E 005°19'0 0.0
2019-Aug-22 05:59N 60°24' E 005°19'0 0.0
2019-Aug-22 05:31N 60°24' E 005°19'0 0.0
2019-Aug-22 05:00N 60°24' E 005°19'0 0.0
2019-Aug-22 04:30N 60°24' E 005°19'0 0.0
2019-Aug-22 04:00N 60°24' E 005°19'0 0.0
2019-Aug-22 03:30N 60°24' E 005°19'0 0.0
2019-Aug-22 03:00N 60°24' E 005°19'0 0.0
2019-Aug-22 02:29N 60°24' E 005°19'0 0.0
2019-Aug-22 02:00N 60°24' E 005°19'0 0.0
2019-Aug-22 01:30N 60°24' E 005°19'0 0.0
2019-Aug-22 01:00N 60°24' E 005°19'0 0.0
2019-Aug-22 00:30N 60°24' E 005°19'0 0.0
2019-Aug-22 00:00N 60°24' E 005°19'0 0.0
2019-Aug-21 23:30N 60°24' E 005°19'0 0.0
2019-Aug-21 23:01N 60°24' E 005°19'0 0.0
2019-Aug-21 22:30N 60°24' E 005°19'0 0.0
2019-Aug-21 22:00N 60°24' E 005°19'0 0.0
2019-Aug-21 21:30N 60°24' E 005°19'0 0.0
2019-Aug-21 21:00N 60°24' E 005°19'0 0.0
2019-Aug-21 20:30N 60°24' E 005°19'0 0.0
2019-Aug-21 20:00N 60°24' E 005°19'0 0.0
2019-Aug-21 19:30N 60°24' E 005°19'0 0.0
2019-Aug-21 19:00N 60°24' E 005°19'0 0.0
2019-Aug-21 18:30N 60°24' E 005°19'0 0.0
2019-Aug-21 18:00N 60°24' E 005°19'0 0.0
2019-Aug-21 17:30N 60°24' E 005°19'0 0.0
2019-Aug-21 17:00N 60°24' E 005°19'0 0.0
2019-Aug-21 16:30N 60°24' E 005°19'0 0.0
2019-Aug-21 16:00N 60°24' E 005°19'0 0.0
2019-Aug-21 15:30N 60°24' E 005°19'0 0.0
2019-Aug-21 15:00N 60°24' E 005°19'0 0.0
2019-Aug-21 14:30N 60°24' E 005°19'0 0.0
2019-Aug-21 14:00N 60°24' E 005°19'0 0.0
2019-Aug-21 13:30N 60°24' E 005°19'0 0.0
2019-Aug-21 13:00N 60°24' E 005°19'0 0.0
2019-Aug-21 12:31N 60°24' E 005°19'0 0.0
2019-Aug-21 12:00N 60°24' E 005°19'0 0.0
2019-Aug-21 11:30N 60°24' E 005°19'0 0.0
2019-Aug-21 11:00N 60°24' E 005°19'0 0.0
2019-Aug-21 10:30N 60°24' E 005°19'0 0.0
2019-Aug-21 10:00N 60°24' E 005°19'0 0.0
2019-Aug-21 09:29N 60°24' E 005°19'0 0.0
2019-Aug-21 09:00N 60°24' E 005°19'0 0.0
2019-Aug-21 08:30N 60°24' E 005°19'0 0.0
2019-Aug-21 08:00N 60°24' E 005°19'0 0.0
2019-Aug-21 07:30N 60°24' E 005°19'0 0.0
2019-Aug-21 07:00N 60°24' E 005°19'0 0.0
2019-Aug-21 06:30N 60°24' E 005°19'0 0.0
2019-Aug-21 06:00N 60°24' E 005°19'0 0.0
2019-Aug-21 05:30N 60°24' E 005°19'0 0.0
2019-Aug-21 05:00N 60°24' E 005°19'0 0.0
2019-Aug-21 04:30N 60°24' E 005°19'0 0.0
2019-Aug-21 04:00N 60°24' E 005°19'0 0.0
2019-Aug-21 03:30N 60°24' E 005°19'0 0.0
2019-Aug-21 03:00N 60°24' E 005°19'0 0.0
2019-Aug-21 02:30N 60°24' E 005°19'0 0.0
2019-Aug-21 02:00N 60°24' E 005°19'0 0.0
2019-Aug-21 01:30N 60°24' E 005°19'0 0.0
2019-Aug-21 01:00N 60°24' E 005°19'0 0.0
2019-Aug-21 00:30N 60°24' E 005°19'0 0.0
2019-Aug-21 00:00N 60°24' E 005°19'0 0.0
2019-Aug-20 23:30N 60°24' E 005°19'0 0.0
2019-Aug-20 23:00N 60°24' E 005°19'0 0.0
2019-Aug-20 22:30N 60°24' E 005°19'0 0.0
2019-Aug-20 22:00N 60°24' E 005°19'0 0.0
2019-Aug-20 21:30N 60°24' E 005°19'0 0.0
2019-Aug-20 21:00N 60°24' E 005°19'0 0.0
2019-Aug-20 20:30N 60°24' E 005°19'0 0.0
2019-Aug-20 20:00N 60°24' E 005°19'0 0.0
2019-Aug-20 19:30N 60°24' E 005°19'0 0.0
2019-Aug-20 19:00N 60°24' E 005°19'0 0.0
2019-Aug-20 18:31N 60°24' E 005°19'0 0.0
2019-Aug-20 18:01N 60°24' E 005°19'0 0.0
2019-Aug-20 17:30N 60°24' E 005°19'0 0.0
2019-Aug-20 17:00N 60°24' E 005°19'0 0.0
2019-Aug-20 16:31N 60°24' E 005°19'0 0.0
2019-Aug-20 16:00N 60°24' E 005°19'0 0.0
2019-Aug-20 15:31N 60°24' E 005°19'0 0.0
2019-Aug-20 15:00N 60°24' E 005°19'0 0.0
2019-Aug-20 14:30N 60°24' E 005°19'0 0.0
2019-Aug-20 14:00N 60°24' E 005°19'0 0.0
2019-Aug-20 13:30N 60°24' E 005°19'0 0.0
2019-Aug-20 13:00N 60°24' E 005°19'0 0.0
2019-Aug-20 12:30N 60°24' E 005°19'0 0.0
2019-Aug-20 12:00N 60°24' E 005°19'0 0.0
2019-Aug-20 11:30N 60°24' E 005°19'0 0.0
2019-Aug-20 11:00N 60°24' E 005°19'0 0.0
2019-Aug-20 10:30N 60°24' E 005°19'0 0.0
2019-Aug-20 10:00N 60°24' E 005°19'0 0.0
2019-Aug-20 09:30N 60°24' E 005°19'0 0.0
2019-Aug-20 09:00N 60°24' E 005°19'0 0.0
2019-Aug-20 08:30N 60°24' E 005°19'0 0.0
2019-Aug-20 08:00N 60°24' E 005°19'0 0.0
2019-Aug-20 07:30N 60°24' E 005°19'0 0.0
2019-Aug-20 07:00N 60°24' E 005°19'0 0.0
2019-Aug-20 06:30N 60°24' E 005°19'0 0.0
2019-Aug-20 06:00N 60°24' E 005°19'0 0.0
2019-Aug-20 05:30N 60°24' E 005°19'0 0.0
2019-Aug-20 05:00N 60°24' E 005°19'0 0.0
2019-Aug-20 04:31N 60°24' E 005°19'0 0.0
2019-Aug-20 04:00N 60°24' E 005°19'0 0.0
2019-Aug-20 03:30N 60°24' E 005°19'0 0.0
2019-Aug-20 03:00N 60°24' E 005°19'0 0.0
2019-Aug-20 02:30N 60°24' E 005°19'0 0.0
2019-Aug-20 02:01N 60°24' E 005°19'0 0.0
2019-Aug-20 01:30N 60°24' E 005°19'0 0.0
2019-Aug-20 01:00N 60°24' E 005°19'0 0.0
2019-Aug-20 00:30N 60°24' E 005°19'0 0.0
2019-Aug-20 00:00N 60°24' E 005°19'0 0.0
2019-Aug-19 23:30N 60°24' E 005°19'0 0.0
2019-Aug-19 23:00N 60°24' E 005°19'0 0.0
2019-Aug-19 22:30N 60°24' E 005°19'0 0.0
2019-Aug-19 22:00N 60°24' E 005°19'0 0.0
2019-Aug-19 21:30N 60°24' E 005°19'0 0.0
2019-Aug-19 21:00N 60°24' E 005°19'0 0.0
2019-Aug-19 20:30N 60°24' E 005°19'0 0.0
2019-Aug-19 20:00N 60°24' E 005°19'0 0.0
2019-Aug-19 19:30N 60°24' E 005°19'0 0.0
2019-Aug-19 19:00N 60°24' E 005°19'0 0.0
2019-Aug-19 18:30N 60°24' E 005°19'0 0.0
2019-Aug-19 18:00N 60°24' E 005°19'0 0.0
2019-Aug-19 17:30N 60°24' E 005°19'0 0.0
2019-Aug-19 17:00N 60°24' E 005°19'0 0.0
2019-Aug-19 16:30N 60°24' E 005°19'0 0.0
2019-Aug-19 16:00N 60°24' E 005°19'0 0.0
2019-Aug-19 15:30N 60°24' E 005°19'0 0.0
2019-Aug-19 15:00N 60°24' E 005°19'0 0.0
2019-Aug-19 14:30N 60°24' E 005°19'0 0.0
2019-Aug-19 14:00N 60°24' E 005°19'0 0.0
2019-Aug-19 13:30N 60°24' E 005°19'0 0.0
2019-Aug-19 12:59N 60°24' E 005°19'0 0.0
2019-Aug-19 12:30N 60°24' E 005°19'0 0.0
2019-Aug-19 12:00N 60°24' E 005°19'0 0.0
2019-Aug-19 11:30N 60°24' E 005°19'0 0.0
2019-Aug-19 11:00N 60°24' E 005°19'0 0.0
2019-Aug-19 10:30N 60°24' E 005°19'0 0.0
2019-Aug-19 10:00N 60°24' E 005°19'0 0.0
2019-Aug-19 09:30N 60°24' E 005°19'0 0.0
2019-Aug-19 09:00N 60°24' E 005°19'0 0.0
2019-Aug-19 08:30N 60°24' E 005°19'0 0.0
2019-Aug-19 08:00N 60°24' E 005°19'0 0.0
2019-Aug-19 07:30N 60°24' E 005°19'0 0.0
2019-Aug-19 07:00N 60°24' E 005°19'0 0.0
2019-Aug-19 06:30N 60°24' E 005°19'0 0.0
2019-Aug-19 06:00N 60°24' E 005°19'0 0.0
2019-Aug-19 05:30N 60°24' E 005°19'0 0.0
2019-Aug-19 05:00N 60°24' E 005°19'0 0.0
2019-Aug-19 04:30N 60°24' E 005°19'0 0.0
2019-Aug-19 03:59N 60°24' E 005°19'0 0.0
2019-Aug-19 03:30N 60°24' E 005°19'0 0.0
2019-Aug-19 03:00N 60°24' E 005°19'0 0.0
2019-Aug-19 02:30N 60°24' E 005°19'0 0.0
2019-Aug-19 02:00N 60°24' E 005°19'0 0.0
2019-Aug-19 01:30N 60°24' E 005°19'0 0.0
2019-Aug-19 01:00N 60°24' E 005°19'0 0.0
2019-Aug-19 00:30N 60°24' E 005°19'0 0.0
2019-Aug-19 00:00N 60°24' E 005°19'0 0.0
2019-Aug-18 23:29N 60°24' E 005°19'0 0.0
2019-Aug-18 23:00N 60°24' E 005°19'0 0.0
2019-Aug-18 22:30N 60°24' E 005°19'0 0.0
2019-Aug-18 22:00N 60°24' E 005°19'0 0.0
2019-Aug-18 21:30N 60°24' E 005°19'0 0.0
2019-Aug-18 21:00N 60°24' E 005°19'0 0.0
2019-Aug-18 20:30N 60°24' E 005°19'0 0.0
2019-Aug-18 20:00N 60°24' E 005°19'0 0.0
2019-Aug-18 19:30N 60°24' E 005°19'0 0.0
2019-Aug-18 19:00N 60°24' E 005°19'0 0.0
2019-Aug-18 18:30N 60°24' E 005°19'0 0.0
2019-Aug-18 18:00N 60°24' E 005°19'0 0.0
2019-Aug-18 17:30N 60°24' E 005°19'0 0.0
2019-Aug-18 17:00N 60°24' E 005°19'0 0.0
2019-Aug-18 16:30N 60°24' E 005°19'0 0.0
2019-Aug-18 16:00N 60°24' E 005°19'0 0.0
2019-Aug-18 15:30N 60°24' E 005°19'0 0.0
2019-Aug-18 15:00N 60°24' E 005°19'0 0.0
2019-Aug-18 14:30N 60°24' E 005°19'0 0.0
2019-Aug-18 14:00N 60°24' E 005°19'0 0.0
2019-Aug-18 13:30N 60°24' E 005°19'0 0.0
2019-Aug-18 13:00N 60°24' E 005°19'0 0.0
2019-Aug-18 12:30N 60°24' E 005°19'0 0.0
2019-Aug-18 12:00N 60°24' E 005°19'0 0.0
2019-Aug-18 11:30N 60°24' E 005°19'0 0.0
2019-Aug-18 11:00N 60°24' E 005°19'0 0.0
2019-Aug-18 10:30N 60°24' E 005°19'0 0.0
2019-Aug-18 10:00N 60°24' E 005°19'0 0.0
2019-Aug-18 09:30N 60°24' E 005°19'0 0.0
2019-Aug-18 09:00N 60°24' E 005°19'0 0.0
2019-Aug-18 08:30N 60°24' E 005°19'0 0.0
2019-Aug-18 08:00N 60°24' E 005°19'0 0.0
2019-Aug-18 07:00N 60°24' E 005°19'0 0.0
2019-Aug-18 06:30N 60°24' E 005°19'0 0.0
2019-Aug-18 06:01N 60°24' E 005°19'0 0.0
2019-Aug-18 05:30N 60°24' E 005°19'0 0.0
2019-Aug-18 05:00N 60°24' E 005°19'0 0.0
2019-Aug-18 04:30N 60°24' E 005°19'0 0.0
2019-Aug-18 04:00N 60°24' E 005°19'0 0.0
2019-Aug-18 03:30N 60°24' E 005°19'0 0.0
2019-Aug-18 03:00N 60°24' E 005°19'0 0.0
2019-Aug-18 02:30N 60°24' E 005°19'0 0.0
2019-Aug-18 02:00N 60°24' E 005°19'0 0.0
2019-Aug-18 01:30N 60°24' E 005°19'0 0.0
2019-Aug-18 01:00N 60°24' E 005°19'0 0.0
2019-Aug-18 00:30N 60°24' E 005°19'0 0.0
2019-Aug-18 00:00N 60°24' E 005°19'0 0.0
2019-Aug-17 23:30N 60°24' E 005°19'0 0.0
2019-Aug-17 23:00N 60°24' E 005°19'0 0.0
2019-Aug-17 22:30N 60°24' E 005°19'0 0.0
2019-Aug-17 22:00N 60°24' E 005°19'0 0.0
2019-Aug-17 21:29N 60°24' E 005°19'0 0.0
2019-Aug-17 21:00N 60°24' E 005°19'0 0.0
2019-Aug-17 20:30N 60°24' E 005°19'0 0.0
2019-Aug-17 20:00N 60°24' E 005°19'0 0.0
2019-Aug-17 19:30N 60°24' E 005°19'0 0.0
2019-Aug-17 19:00N 60°24' E 005°19'0 0.0
2019-Aug-17 18:30N 60°24' E 005°19'0 0.0
2019-Aug-17 17:30N 60°24' E 005°19'0 0.0
2019-Aug-17 17:00N 60°24' E 005°19'1 2.5
2019-Aug-17 16:30N 60°24' E 005°17'4 8.3
2019-Aug-17 16:00N 60°21' E 005°10'5 9.5
2019-Aug-17 15:30N 60°17' E 005°11'5 9.2
2019-Aug-17 15:01N 60°12' E 005°12'5 9.8
2019-Aug-17 14:29N 60°08' E 005°18'510.3
2019-Aug-17 14:00N 60°03' E 005°20'510.5
2019-Aug-17 13:30N 59°58' E 005°24'510.4
2019-Aug-17 13:00N 59°54' E 005°31'510.8
2019-Aug-17 12:30N 59°49' E 005°33'5 9.8
2019-Aug-17 12:01N 59°45' E 005°31'510.5
2019-Aug-17 11:30N 59°41' E 005°23'611.2
2019-Aug-17 11:00N 59°36' E 005°17'510.9
2019-Aug-17 10:30N 59°31' E 005°13'5 9.4
2019-Aug-17 10:01N 59°27' E 005°10'5 9.7
2019-Aug-17 09:30N 59°22' E 005°06'510.3
2019-Aug-17 09:00N 59°17' E 005°06'510.6
2019-Aug-17 08:30N 59°12' E 005°07'611.1
2019-Aug-17 08:00N 59°06' E 005°09'611.1
2019-Aug-17 07:31N 59°01' E 005°11'511.0
2019-Aug-17 07:00N 58°56' E 005°15'510.5
2019-Aug-17 06:30N 58°51' E 005°17'510.7
2019-Aug-17 06:01N 58°46' E 005°21'611.6
2019-Aug-17 05:30N 58°40' E 005°25'611.5
2019-Aug-17 05:00N 58°35' E 005°31'611.7
2019-Aug-17 04:31N 58°31' E 005°37'611.4
2019-Aug-17 04:00N 58°26' E 005°44'511.0
2019-Aug-17 03:30N 58°22' E 005°52'510.6
2019-Aug-17 03:00N 58°19' E 005°59'510.8
2019-Aug-17 02:30N 58°15' E 006°07'511.0
2019-Aug-17 02:01N 58°11' E 006°14'611.3
2019-Aug-17 01:30N 58°07' E 006°22'511.2
2019-Aug-17 01:01N 58°04' E 006°30'510.8
2019-Aug-17 00:30N 58°00' E 006°38'510.4
2019-Aug-17 00:01N 57°57' E 006°46'5 9.8
2019-Aug-16 23:30N 57°55' E 006°54'5 9.6
2019-Aug-16 23:01N 57°53' E 007°02'5 9.2
2019-Aug-16 22:31N 57°53' E 007°11'4 7.8
2019-Aug-16 22:00N 57°53' E 007°18'4 8.1
2019-Aug-16 21:30N 57°54' E 007°26'4 8.2
2019-Aug-16 21:00N 57°54' E 007°34'4 7.8
2019-Aug-16 20:31N 57°55' E 007°40'4 8.0
2019-Aug-16 20:00N 57°57' E 007°47'4 8.0
2019-Aug-16 19:31N 57°58' E 007°54'4 8.1
2019-Aug-16 19:00N 57°59' E 008°01'4 7.5
2019-Aug-16 18:31N 58°01' E 008°08'4 7.4
2019-Aug-16 18:00N 58°02' E 008°15'4 7.3
2019-Aug-16 17:31N 58°04' E 008°20'3 6.9
2019-Aug-16 17:01N 58°06' E 008°25'3 6.1
2019-Aug-16 16:31N 58°08' E 008°30'3 5.1
2019-Aug-16 16:01N 58°10' E 008°33'2 4.4
2019-Aug-16 15:31N 58°12' E 008°36'2 3.9
2019-Aug-16 15:00N 58°13' E 008°38'2 4.0
2019-Aug-16 14:30N 58°15' E 008°40'2 4.6
2019-Aug-16 14:01N 58°17' E 008°43'3 5.3
2019-Aug-16 13:30N 58°19' E 008°45'3 5.8
2019-Aug-16 13:00N 58°22' E 008°47'3 5.5
2019-Aug-16 12:30N 58°25' E 008°47'3 4.9
2019-Aug-16 11:59N 58°27' E 008°47'0 0.7
2019-Aug-16 11:30N 58°27' E 008°46'0 0.0
2019-Aug-16 10:58N 58°27' E 008°46'0 0.0
2019-Aug-16 10:28N 58°27' E 008°46'0 0.0
2019-Aug-16 09:58N 58°27' E 008°46'0 0.0
2019-Aug-16 09:29N 58°27' E 008°46'0 0.0
2019-Aug-16 08:59N 58°27' E 008°46'0 0.0
2019-Aug-16 08:29N 58°27' E 008°46'0 0.0
2019-Aug-16 08:00N 58°27' E 008°46'0 0.0
2019-Aug-16 07:30N 58°27' E 008°46'0 0.0
2019-Aug-16 07:00N 58°27' E 008°46'0 0.0
2019-Aug-16 06:28N 58°27' E 008°46'0 0.0
2019-Aug-16 05:58N 58°27' E 008°46'0 0.0
2019-Aug-16 05:29N 58°27' E 008°46'0 0.0
2019-Aug-16 04:59N 58°27' E 008°46'0 0.0
2019-Aug-16 04:29N 58°27' E 008°46'0 0.0
2019-Aug-16 03:59N 58°28' E 008°46'0 0.0
2019-Aug-16 03:30N 58°27' E 008°46'0 0.0
2019-Aug-16 03:00N 58°27' E 008°46'0 0.0
2019-Aug-16 02:30N 58°27' E 008°46'0 0.0
2019-Aug-16 01:58N 58°28' E 008°46'0 0.0
2019-Aug-16 01:28N 58°27' E 008°46'0 0.0
2019-Aug-16 00:59N 58°27' E 008°46'0 0.0
2019-Aug-16 00:29N 58°27' E 008°46'0 0.0
2019-Aug-15 23:59N 58°27' E 008°46'0 0.0
2019-Aug-15 23:30N 58°27' E 008°46'0 0.0
2019-Aug-15 23:00N 58°27' E 008°46'0 0.0
2019-Aug-15 22:30N 58°27' E 008°46'0 0.0
2019-Aug-15 22:00N 58°27' E 008°46'0 0.0
2019-Aug-15 21:28N 58°27' E 008°46'0 0.0
2019-Aug-15 20:58N 58°27' E 008°46'0 0.0
2019-Aug-15 20:29N 58°27' E 008°46'0 0.0
2019-Aug-15 19:59N 58°27' E 008°46'0 0.0
2019-Aug-15 19:29N 58°27' E 008°46'0 0.0
2019-Aug-15 19:00N 58°27' E 008°46'0 0.0
2019-Aug-15 18:30N 58°27' E 008°46'0 0.0
2019-Aug-15 18:00N 58°27' E 008°46'0 0.0
2019-Aug-15 17:31N 58°27' E 008°46'0 0.0
2019-Aug-15 16:58N 58°27' E 008°46'0 0.0
2019-Aug-15 16:28N 58°27' E 008°46'0 0.0
2019-Aug-15 15:59N 58°27' E 008°46'0 0.0
2019-Aug-15 15:29N 58°27' E 008°46'0 0.0
2019-Aug-15 14:59N 58°27' E 008°46'0 0.0
2019-Aug-15 14:30N 58°27' E 008°46'0 0.0
2019-Aug-15 14:00N 58°27' E 008°46'0 0.0
2019-Aug-15 13:30N 58°27' E 008°46'0 0.0
2019-Aug-15 12:58N 58°27' E 008°46'0 0.0
2019-Aug-15 12:28N 58°27' E 008°46'0 0.0
2019-Aug-15 11:58N 58°27' E 008°46'0 0.0
2019-Aug-15 11:29N 58°27' E 008°46'0 0.0
2019-Aug-15 10:59N 58°27' E 008°46'0 0.0
2019-Aug-15 10:29N 58°27' E 008°46'0 0.0
2019-Aug-15 10:00N 58°27' E 008°46'0 0.0
2019-Aug-15 09:30N 58°27' E 008°46'0 0.0
2019-Aug-15 08:57N 58°27' E 008°46'0 0.0
2019-Aug-15 08:28N 58°27' E 008°46'0 0.0
2019-Aug-15 07:58N 58°27' E 008°46'0 0.0
2019-Aug-15 07:28N 58°27' E 008°46'0 0.0
2019-Aug-15 06:59N 58°27' E 008°46'0 0.0
2019-Aug-15 06:29N 58°27' E 008°46'0 0.0
2019-Aug-15 05:59N 58°27' E 008°46'0 0.0
2019-Aug-15 05:30N 58°27' E 008°46'0 0.0
2019-Aug-15 05:00N 58°27' E 008°46'0 0.0
2019-Aug-15 04:30N 58°27' E 008°46'0 0.0
2019-Aug-15 03:58N 58°27' E 008°46'0 0.0
2019-Aug-15 03:28N 58°27' E 008°46'0 0.0
2019-Aug-15 02:58N 58°27' E 008°46'0 0.0
2019-Aug-15 02:29N 58°27' E 008°46'0 0.0
2019-Aug-15 01:59N 58°27' E 008°46'0 0.0
2019-Aug-15 01:29N 58°27' E 008°46'0 0.0
2019-Aug-15 01:00N 58°27' E 008°46'0 0.0
2019-Aug-15 00:30N 58°27' E 008°46'0 0.0
2019-Aug-15 00:00N 58°27' E 008°46'0 0.0
2019-Aug-14 23:28N 58°27' E 008°46'0 0.0
2019-Aug-14 22:58N 58°27' E 008°46'0 0.0
2019-Aug-14 22:28N 58°27' E 008°46'0 0.0
2019-Aug-14 21:59N 58°27' E 008°46'0 0.0
2019-Aug-14 21:29N 58°27' E 008°46'0 0.0
2019-Aug-14 20:59N 58°27' E 008°46'0 0.0
2019-Aug-14 20:30N 58°27' E 008°46'0 0.0
2019-Aug-14 20:00N 58°27' E 008°46'0 0.0
2019-Aug-14 19:30N 58°27' E 008°46'  
Track history (hours):
 
Tides and Currents Weather Stations Pressure Air Temp Water Temp Dewpoint Dewpoint Depression Visibility Wind Speed Wind Dir Waves Ship Positions

Statsraad Lehmkuhl (Norway)

Ship's website: http://www.lehmkuhl.no/eng/index.cfm

Last reported at 2019-Aug-24 19:30 UTC. Time now 2019-Aug-24 19:53 UTC.
Position N 60°24' E 005°18'.

Length 85 m; draft 5.5 m.

Type: Sailing vessel. MMSI: 258113000.

Date/timePositionNaut miles runAvg speedWind from/ knotsBaromVisibWave heightAir tempDewpointWater temp
2019-Aug-24 19:30N 60°24' E 005°18'2 3.4
2019-Aug-24 19:00N 60°24' E 005°15'2 3.4
2019-Aug-24 18:30N 60°23' E 005°12'2 4.8
2019-Aug-24 18:00N 60°24' E 005°07'2 4.1
2019-Aug-24 17:30N 60°25' E 005°04'2 4.3
2019-Aug-24 17:00N 60°25' E 005°08'2 4.5
2019-Aug-24 16:30N 60°24' E 005°12'2 4.6
2019-Aug-24 16:00N 60°24' E 005°16'2 3.2
2019-Aug-24 15:30N 60°24' E 005°19'0 0.0
2019-Aug-24 15:00N 60°24' E 005°19'0 0.0
2019-Aug-24 14:30N 60°24' E 005°19'0 0.0
2019-Aug-24 14:00N 60°24' E 005°19'0 0.0
2019-Aug-24 13:30N 60°24' E 005°19'0 0.0
2019-Aug-24 13:00N 60°24' E 005°19'0 0.0
2019-Aug-24 12:30N 60°24' E 005°19'0 0.0
2019-Aug-24 12:00N 60°24' E 005°19'0 0.0
2019-Aug-24 11:30N 60°24' E 005°19'0 0.0
2019-Aug-24 11:00N 60°24' E 005°19'0 0.0
2019-Aug-24 10:31N 60°24' E 005°19'0 0.0
2019-Aug-24 10:00N 60°24' E 005°19'0 0.0
2019-Aug-24 09:30N 60°24' E 005°19'0 0.0
2019-Aug-24 09:01N 60°24' E 005°19'0 0.0
2019-Aug-24 08:30N 60°24' E 005°19'0 0.0
2019-Aug-24 08:00N 60°24' E 005°19'0 0.0
2019-Aug-24 07:30N 60°24' E 005°19'0 0.0
2019-Aug-24 07:00N 60°24' E 005°19'0 0.0
2019-Aug-24 06:30N 60°24' E 005°19'0 0.0
2019-Aug-24 06:00N 60°24' E 005°19'0 0.0
2019-Aug-24 05:30N 60°24' E 005°19'0 0.0
2019-Aug-24 05:00N 60°24' E 005°19'0 0.0
2019-Aug-24 04:30N 60°24' E 005°19'0 0.0
2019-Aug-24 04:00N 60°24' E 005°19'0 0.0
2019-Aug-24 03:30N 60°24' E 005°19'0 0.0
2019-Aug-24 03:00N 60°24' E 005°19'0 0.0
2019-Aug-24 02:30N 60°24' E 005°19'0 0.0
2019-Aug-24 02:00N 60°24' E 005°19'0 0.0
2019-Aug-24 01:31N 60°24' E 005°19'0 0.0
2019-Aug-24 01:00N 60°24' E 005°19'0 0.0
2019-Aug-24 00:30N 60°24' E 005°19'0 0.0
2019-Aug-24 00:00N 60°24' E 005°19'0 0.0
2019-Aug-23 23:30N 60°24' E 005°19'0 0.0
2019-Aug-23 23:00N 60°24' E 005°19'0 0.0
2019-Aug-23 22:30N 60°24' E 005°19'0 0.0
2019-Aug-23 22:00N 60°24' E 005°19'0 0.0
2019-Aug-23 21:31N 60°24' E 005°19'0 0.0
2019-Aug-23 21:00N 60°24' E 005°19'0 0.0
2019-Aug-23 20:30N 60°24' E 005°19'0 0.0
2019-Aug-23 20:00N 60°24' E 005°19'1 1.1
2019-Aug-23 19:30N 60°24' E 005°18'2 3.8
2019-Aug-23 19:00N 60°24' E 005°14'2 3.8
2019-Aug-23 18:30N 60°23' E 005°11'3 5.1
2019-Aug-23 18:00N 60°24' E 005°07'2 3.5
2019-Aug-23 17:30N 60°26' E 005°04'2 4.8
2019-Aug-23 17:00N 60°24' E 005°09'2 4.1
2019-Aug-23 16:30N 60°24' E 005°13'2 3.9
2019-Aug-23 16:00N 60°24' E 005°16'2 3.1
2019-Aug-23 15:30N 60°24' E 005°19'0 0.0
2019-Aug-23 15:01N 60°24' E 005°19'0 0.0
2019-Aug-23 14:30N 60°24' E 005°19'0 0.0
2019-Aug-23 14:00N 60°24' E 005°19'0 0.0
2019-Aug-23 13:30N 60°24' E 005°19'0 0.0
2019-Aug-23 13:00N 60°24' E 005°19'0 0.0
2019-Aug-23 12:30N 60°24' E 005°19'0 0.0
2019-Aug-23 12:00N 60°24' E 005°19'0 0.0
2019-Aug-23 11:30N 60°24' E 005°19'0 0.0
2019-Aug-23 11:00N 60°24' E 005°19'0 0.0
2019-Aug-23 10:30N 60°24' E 005°19'0 0.0
2019-Aug-23 10:00N 60°24' E 005°19'0 0.0
2019-Aug-23 09:30N 60°24' E 005°19'0 0.0
2019-Aug-23 09:00N 60°24' E 005°19'0 0.0
2019-Aug-23 08:30N 60°24' E 005°19'0 0.0
2019-Aug-23 08:00N 60°24' E 005°19'0 0.0
2019-Aug-23 07:30N 60°24' E 005°19'0 0.0
2019-Aug-23 07:00N 60°24' E 005°19'0 0.0
2019-Aug-23 06:30N 60°24' E 005°19'0 0.0
2019-Aug-23 06:01N 60°24' E 005°19'0 0.0
2019-Aug-23 05:30N 60°24' E 005°19'0 0.0
2019-Aug-23 05:01N 60°24' E 005°19'0 0.0
2019-Aug-23 04:30N 60°24' E 005°19'0 0.0
2019-Aug-23 03:59N 60°24' E 005°19'0 0.0
2019-Aug-23 03:31N 60°24' E 005°19'0 0.0
2019-Aug-23 03:00N 60°24' E 005°19'0 0.0
2019-Aug-23 02:30N 60°24' E 005°19'0 0.0
2019-Aug-23 02:00N 60°24' E 005°19'0 0.0
2019-Aug-23 01:30N 60°24' E 005°19'0 0.0
2019-Aug-23 01:00N 60°24' E 005°19'0 0.0
2019-Aug-23 00:30N 60°24' E 005°19'0 0.0
2019-Aug-23 00:00N 60°24' E 005°19'0 0.0
2019-Aug-22 23:30N 60°24' E 005°19'0 0.0
2019-Aug-22 23:00N 60°24' E 005°19'0 0.0
2019-Aug-22 22:31N 60°24' E 005°19'0 0.0
2019-Aug-22 21:59N 60°24' E 005°19'0 0.0
2019-Aug-22 21:30N 60°24' E 005°19'0 0.0
2019-Aug-22 21:00N 60°24' E 005°19'0 0.0
2019-Aug-22 20:30N 60°24' E 005°19'0 0.0
2019-Aug-22 20:00N 60°24' E 005°19'1 1.1
2019-Aug-22 19:30N 60°24' E 005°18'2 3.9
2019-Aug-22 19:00N 60°24' E 005°14'2 4.3
2019-Aug-22 18:30N 60°23' E 005°10'2 3.2
2019-Aug-22 18:01N 60°24' E 005°08'2 4.4
2019-Aug-22 17:30N 60°25' E 005°04'2 4.1
2019-Aug-22 17:00N 60°26' E 005°08'3 5.5
2019-Aug-22 16:30N 60°23' E 005°11'1 2.7
2019-Aug-22 15:59N 60°24' E 005°14'2 5.1
2019-Aug-22 15:31N 60°24' E 005°19'0 0.5
2019-Aug-22 15:00N 60°24' E 005°19'0 0.0
2019-Aug-22 14:30N 60°24' E 005°19'0 0.0
2019-Aug-22 14:00N 60°24' E 005°19'0 0.0
2019-Aug-22 13:30N 60°24' E 005°19'0 0.0
2019-Aug-22 13:00N 60°24' E 005°19'0 0.0
2019-Aug-22 12:30N 60°24' E 005°19'0 0.0
2019-Aug-22 11:59N 60°24' E 005°19'0 0.0
2019-Aug-22 11:30N 60°24' E 005°19'0 0.0
2019-Aug-22 11:00N 60°24' E 005°19'0 0.0
2019-Aug-22 10:30N 60°24' E 005°19'0 0.0
2019-Aug-22 10:00N 60°24' E 005°19'0 0.0
2019-Aug-22 09:30N 60°24' E 005°19'0 0.0
2019-Aug-22 09:00N 60°24' E 005°19'0 0.0
2019-Aug-22 08:30N 60°24' E 005°19'0 0.0
2019-Aug-22 08:00N 60°24' E 005°19'0 0.0
2019-Aug-22 07:30N 60°24' E 005°19'0 0.0
2019-Aug-22 07:00N 60°24' E 005°19'0 0.0
2019-Aug-22 06:30N 60°24' E 005°19'0 0.0
2019-Aug-22 05:59N 60°24' E 005°19'0 0.0
2019-Aug-22 05:31N 60°24' E 005°19'0 0.0
2019-Aug-22 05:00N 60°24' E 005°19'0 0.0
2019-Aug-22 04:30N 60°24' E 005°19'0 0.0
2019-Aug-22 04:00N 60°24' E 005°19'0 0.0
2019-Aug-22 03:30N 60°24' E 005°19'0 0.0
2019-Aug-22 03:00N 60°24' E 005°19'0 0.0
2019-Aug-22 02:29N 60°24' E 005°19'0 0.0
2019-Aug-22 02:00N 60°24' E 005°19'0 0.0
2019-Aug-22 01:30N 60°24' E 005°19'0 0.0
2019-Aug-22 01:00N 60°24' E 005°19'0 0.0
2019-Aug-22 00:30N 60°24' E 005°19'0 0.0
2019-Aug-22 00:00N 60°24' E 005°19'0 0.0
2019-Aug-21 23:30N 60°24' E 005°19'0 0.0
2019-Aug-21 23:01N 60°24' E 005°19'0 0.0
2019-Aug-21 22:30N 60°24' E 005°19'0 0.0
2019-Aug-21 22:00N 60°24' E 005°19'0 0.0
2019-Aug-21 21:30N 60°24' E 005°19'0 0.0
2019-Aug-21 21:00N 60°24' E 005°19'0 0.0
2019-Aug-21 20:30N 60°24' E 005°19'0 0.0
2019-Aug-21 20:00N 60°24' E 005°19'0 0.0
2019-Aug-21 19:30N 60°24' E 005°19'0 0.0
2019-Aug-21 19:00N 60°24' E 005°19'0 0.0
2019-Aug-21 18:30N 60°24' E 005°19'0 0.0
2019-Aug-21 18:00N 60°24' E 005°19'0 0.0
2019-Aug-21 17:30N 60°24' E 005°19'0 0.0
2019-Aug-21 17:00N 60°24' E 005°19'0 0.0
2019-Aug-21 16:30N 60°24' E 005°19'0 0.0
2019-Aug-21 16:00N 60°24' E 005°19'0 0.0
2019-Aug-21 15:30N 60°24' E 005°19'0 0.0
2019-Aug-21 15:00N 60°24' E 005°19'0 0.0
2019-Aug-21 14:30N 60°24' E 005°19'0 0.0
2019-Aug-21 14:00N 60°24' E 005°19'0 0.0
2019-Aug-21 13:30N 60°24' E 005°19'0 0.0
2019-Aug-21 13:00N 60°24' E 005°19'0 0.0
2019-Aug-21 12:31N 60°24' E 005°19'0 0.0
2019-Aug-21 12:00N 60°24' E 005°19'0 0.0
2019-Aug-21 11:30N 60°24' E 005°19'0 0.0
2019-Aug-21 11:00N 60°24' E 005°19'0 0.0
2019-Aug-21 10:30N 60°24' E 005°19'0 0.0
2019-Aug-21 10:00N 60°24' E 005°19'0 0.0
2019-Aug-21 09:29N 60°24' E 005°19'0 0.0
2019-Aug-21 09:00N 60°24' E 005°19'0 0.0
2019-Aug-21 08:30N 60°24' E 005°19'0 0.0
2019-Aug-21 08:00N 60°24' E 005°19'0 0.0
2019-Aug-21 07:30N 60°24' E 005°19'0 0.0
2019-Aug-21 07:00N 60°24' E 005°19'0 0.0
2019-Aug-21 06:30N 60°24' E 005°19'0 0.0
2019-Aug-21 06:00N 60°24' E 005°19'0 0.0
2019-Aug-21 05:30N 60°24' E 005°19'0 0.0
2019-Aug-21 05:00N 60°24' E 005°19'0 0.0
2019-Aug-21 04:30N 60°24' E 005°19'0 0.0
2019-Aug-21 04:00N 60°24' E 005°19'0 0.0
2019-Aug-21 03:30N 60°24' E 005°19'0 0.0
2019-Aug-21 03:00N 60°24' E 005°19'0 0.0
2019-Aug-21 02:30N 60°24' E 005°19'0 0.0
2019-Aug-21 02:00N 60°24' E 005°19'0 0.0
2019-Aug-21 01:30N 60°24' E 005°19'0 0.0
2019-Aug-21 01:00N 60°24' E 005°19'0 0.0
2019-Aug-21 00:30N 60°24' E 005°19'0 0.0
2019-Aug-21 00:00N 60°24' E 005°19'0 0.0
2019-Aug-20 23:30N 60°24' E 005°19'0 0.0
2019-Aug-20 23:00N 60°24' E 005°19'0 0.0
2019-Aug-20 22:30N 60°24' E 005°19'0 0.0
2019-Aug-20 22:00N 60°24' E 005°19'0 0.0
2019-Aug-20 21:30N 60°24' E 005°19'0 0.0
2019-Aug-20 21:00N 60°24' E 005°19'0 0.0
2019-Aug-20 20:30N 60°24' E 005°19'0 0.0
2019-Aug-20 20:00N 60°24' E 005°19'0 0.0
2019-Aug-20 19:30N 60°24' E 005°19'0 0.0
2019-Aug-20 19:00N 60°24' E 005°19'0 0.0
2019-Aug-20 18:31N 60°24' E 005°19'0 0.0
2019-Aug-20 18:01N 60°24' E 005°19'0 0.0
2019-Aug-20 17:30N 60°24' E 005°19'0 0.0
2019-Aug-20 17:00N 60°24' E 005°19'0 0.0
2019-Aug-20 16:31N 60°24' E 005°19'0 0.0
2019-Aug-20 16:00N 60°24' E 005°19'0 0.0
2019-Aug-20 15:31N 60°24' E 005°19'0 0.0
2019-Aug-20 15:00N 60°24' E 005°19'0 0.0
2019-Aug-20 14:30N 60°24' E 005°19'0 0.0
2019-Aug-20 14:00N 60°24' E 005°19'0 0.0
2019-Aug-20 13:30N 60°24' E 005°19'0 0.0
2019-Aug-20 13:00N 60°24' E 005°19'0 0.0
2019-Aug-20 12:30N 60°24' E 005°19'0 0.0
2019-Aug-20 12:00N 60°24' E 005°19'0 0.0
2019-Aug-20 11:30N 60°24' E 005°19'0 0.0
2019-Aug-20 11:00N 60°24' E 005°19'0 0.0
2019-Aug-20 10:30N 60°24' E 005°19'0 0.0
2019-Aug-20 10:00N 60°24' E 005°19'0 0.0
2019-Aug-20 09:30N 60°24' E 005°19'0 0.0
2019-Aug-20 09:00N 60°24' E 005°19'0 0.0
2019-Aug-20 08:30N 60°24' E 005°19'0 0.0
2019-Aug-20 08:00N 60°24' E 005°19'0 0.0
2019-Aug-20 07:30N 60°24' E 005°19'0 0.0
2019-Aug-20 07:00N 60°24' E 005°19'0 0.0
2019-Aug-20 06:30N 60°24' E 005°19'0 0.0
2019-Aug-20 06:00N 60°24' E 005°19'0 0.0
2019-Aug-20 05:30N 60°24' E 005°19'0 0.0
2019-Aug-20 05:00N 60°24' E 005°19'0 0.0
2019-Aug-20 04:31N 60°24' E 005°19'0 0.0
2019-Aug-20 04:00N 60°24' E 005°19'0 0.0
2019-Aug-20 03:30N 60°24' E 005°19'0 0.0
2019-Aug-20 03:00N 60°24' E 005°19'0 0.0
2019-Aug-20 02:30N 60°24' E 005°19'0 0.0
2019-Aug-20 02:01N 60°24' E 005°19'0 0.0
2019-Aug-20 01:30N 60°24' E 005°19'0 0.0
2019-Aug-20 01:00N 60°24' E 005°19'0 0.0
2019-Aug-20 00:30N 60°24' E 005°19'0 0.0
2019-Aug-20 00:00N 60°24' E 005°19'0 0.0
2019-Aug-19 23:30N 60°24' E 005°19'0 0.0
2019-Aug-19 23:00N 60°24' E 005°19'0 0.0
2019-Aug-19 22:30N 60°24' E 005°19'0 0.0
2019-Aug-19 22:00N 60°24' E 005°19'0 0.0
2019-Aug-19 21:30N 60°24' E 005°19'0 0.0
2019-Aug-19 21:00N 60°24' E 005°19'0 0.0
2019-Aug-19 20:30N 60°24' E 005°19'0 0.0
2019-Aug-19 20:00N 60°24' E 005°19'0 0.0
2019-Aug-19 19:30N 60°24' E 005°19'0 0.0
2019-Aug-19 19:00N 60°24' E 005°19'0 0.0
2019-Aug-19 18:30N 60°24' E 005°19'0 0.0
2019-Aug-19 18:00N 60°24' E 005°19'0 0.0
2019-Aug-19 17:30N 60°24' E 005°19'0 0.0
2019-Aug-19 17:00N 60°24' E 005°19'0 0.0
2019-Aug-19 16:30N 60°24' E 005°19'0 0.0
2019-Aug-19 16:00N 60°24' E 005°19'0 0.0
2019-Aug-19 15:30N 60°24' E 005°19'0 0.0
2019-Aug-19 15:00N 60°24' E 005°19'0 0.0
2019-Aug-19 14:30N 60°24' E 005°19'0 0.0
2019-Aug-19 14:00N 60°24' E 005°19'0 0.0
2019-Aug-19 13:30N 60°24' E 005°19'0 0.0
2019-Aug-19 12:59N 60°24' E 005°19'0 0.0
2019-Aug-19 12:30N 60°24' E 005°19'0 0.0
2019-Aug-19 12:00N 60°24' E 005°19'0 0.0
2019-Aug-19 11:30N 60°24' E 005°19'0 0.0
2019-Aug-19 11:00N 60°24' E 005°19'0 0.0
2019-Aug-19 10:30N 60°24' E 005°19'0 0.0
2019-Aug-19 10:00N 60°24' E 005°19'0 0.0
2019-Aug-19 09:30N 60°24' E 005°19'0 0.0
2019-Aug-19 09:00N 60°24' E 005°19'0 0.0
2019-Aug-19 08:30N 60°24' E 005°19'0 0.0
2019-Aug-19 08:00N 60°24' E 005°19'0 0.0
2019-Aug-19 07:30N 60°24' E 005°19'0 0.0
2019-Aug-19 07:00N 60°24' E 005°19'0 0.0
2019-Aug-19 06:30N 60°24' E 005°19'0 0.0
2019-Aug-19 06:00N 60°24' E 005°19'0 0.0
2019-Aug-19 05:30N 60°24' E 005°19'0 0.0
2019-Aug-19 05:00N 60°24' E 005°19'0 0.0
2019-Aug-19 04:30N 60°24' E 005°19'0 0.0
2019-Aug-19 03:59N 60°24' E 005°19'0 0.0
2019-Aug-19 03:30N 60°24' E 005°19'0 0.0
2019-Aug-19 03:00N 60°24' E 005°19'0 0.0
2019-Aug-19 02:30N 60°24' E 005°19'0 0.0
2019-Aug-19 02:00N 60°24' E 005°19'0 0.0
2019-Aug-19 01:30N 60°24' E 005°19'0 0.0
2019-Aug-19 01:00N 60°24' E 005°19'0 0.0
2019-Aug-19 00:30N 60°24' E 005°19'0 0.0
2019-Aug-19 00:00N 60°24' E 005°19'0 0.0
2019-Aug-18 23:29N 60°24' E 005°19'0 0.0
2019-Aug-18 23:00N 60°24' E 005°19'0 0.0
2019-Aug-18 22:30N 60°24' E 005°19'0 0.0
2019-Aug-18 22:00N 60°24' E 005°19'0 0.0
2019-Aug-18 21:30N 60°24' E 005°19'0 0.0
2019-Aug-18 21:00N 60°24' E 005°19'0 0.0
2019-Aug-18 20:30N 60°24' E 005°19'0 0.0
2019-Aug-18 20:00N 60°24' E 005°19'0 0.0
2019-Aug-18 19:30N 60°24' E 005°19'0 0.0
2019-Aug-18 19:00N 60°24' E 005°19'0 0.0
2019-Aug-18 18:30N 60°24' E 005°19'0 0.0
2019-Aug-18 18:00N 60°24' E 005°19'0 0.0
2019-Aug-18 17:30N 60°24' E 005°19'0 0.0
2019-Aug-18 17:00N 60°24' E 005°19'0 0.0
2019-Aug-18 16:30N 60°24' E 005°19'0 0.0
2019-Aug-18 16:00N 60°24' E 005°19'0 0.0
2019-Aug-18 15:30N 60°24' E 005°19'0 0.0
2019-Aug-18 15:00N 60°24' E 005°19'0 0.0
2019-Aug-18 14:30N 60°24' E 005°19'0 0.0
2019-Aug-18 14:00N 60°24' E 005°19'0 0.0
2019-Aug-18 13:30N 60°24' E 005°19'0 0.0
2019-Aug-18 13:00N 60°24' E 005°19'0 0.0
2019-Aug-18 12:30N 60°24' E 005°19'0 0.0
2019-Aug-18 12:00N 60°24' E 005°19'0 0.0
2019-Aug-18 11:30N 60°24' E 005°19'0 0.0
2019-Aug-18 11:00N 60°24' E 005°19'0 0.0
2019-Aug-18 10:30N 60°24' E 005°19'0 0.0
2019-Aug-18 10:00N 60°24' E 005°19'0 0.0
2019-Aug-18 09:30N 60°24' E 005°19'0 0.0
2019-Aug-18 09:00N 60°24' E 005°19'0 0.0
2019-Aug-18 08:30N 60°24' E 005°19'0 0.0
2019-Aug-18 08:00N 60°24' E 005°19'0 0.0
2019-Aug-18 07:00N 60°24' E 005°19'0 0.0
2019-Aug-18 06:30N 60°24' E 005°19'0 0.0
2019-Aug-18 06:01N 60°24' E 005°19'0 0.0
2019-Aug-18 05:30N 60°24' E 005°19'0 0.0
2019-Aug-18 05:00N 60°24' E 005°19'0 0.0
2019-Aug-18 04:30N 60°24' E 005°19'0 0.0
2019-Aug-18 04:00N 60°24' E 005°19'0 0.0
2019-Aug-18 03:30N 60°24' E 005°19'0 0.0
2019-Aug-18 03:00N 60°24' E 005°19'0 0.0
2019-Aug-18 02:30N 60°24' E 005°19'0 0.0
2019-Aug-18 02:00N 60°24' E 005°19'0 0.0
2019-Aug-18 01:30N 60°24' E 005°19'0 0.0
2019-Aug-18 01:00N 60°24' E 005°19'0 0.0
2019-Aug-18 00:30N 60°24' E 005°19'0 0.0
2019-Aug-18 00:00N 60°24' E 005°19'0 0.0
2019-Aug-17 23:30N 60°24' E 005°19'0 0.0
2019-Aug-17 23:00N 60°24' E 005°19'0 0.0
2019-Aug-17 22:30N 60°24' E 005°19'0 0.0
2019-Aug-17 22:00N 60°24' E 005°19'0 0.0
2019-Aug-17 21:29N 60°24' E 005°19'0 0.0
2019-Aug-17 21:00N 60°24' E 005°19'0 0.0
2019-Aug-17 20:30N 60°24' E 005°19'0 0.0
2019-Aug-17 20:00N 60°24' E 005°19'0 0.0
2019-Aug-17 19:30N 60°24' E 005°19'0 0.0
2019-Aug-17 19:00N 60°24' E 005°19'0 0.0
2019-Aug-17 18:30N 60°24' E 005°19'0 0.0
2019-Aug-17 17:30N 60°24' E 005°19'0 0.0
2019-Aug-17 17:00N 60°24' E 005°19'1 2.5
2019-Aug-17 16:30N 60°24' E 005°17'4 8.3
2019-Aug-17 16:00N 60°21' E 005°10'5 9.5
2019-Aug-17 15:30N 60°17' E 005°11'5 9.2
2019-Aug-17 15:01N 60°12' E 005°12'5 9.8
2019-Aug-17 14:29N 60°08' E 005°18'510.3
2019-Aug-17 14:00N 60°03' E 005°20'510.5
2019-Aug-17 13:30N 59°58' E 005°24'510.4
2019-Aug-17 13:00N 59°54' E 005°31'510.8
2019-Aug-17 12:30N 59°49' E 005°33'5 9.8
2019-Aug-17 12:01N 59°45' E 005°31'510.5
2019-Aug-17 11:30N 59°41' E 005°23'611.2
2019-Aug-17 11:00N 59°36' E 005°17'510.9
2019-Aug-17 10:30N 59°31' E 005°13'5 9.4
2019-Aug-17 10:01N 59°27' E 005°10'5 9.7
2019-Aug-17 09:30N 59°22' E 005°06'510.3
2019-Aug-17 09:00N 59°17' E 005°06'510.6
2019-Aug-17 08:30N 59°12' E 005°07'611.1
2019-Aug-17 08:00N 59°06' E 005°09'611.1
2019-Aug-17 07:31N 59°01' E 005°11'511.0
2019-Aug-17 07:00N 58°56' E 005°15'510.5
2019-Aug-17 06:30N 58°51' E 005°17'510.7
2019-Aug-17 06:01N 58°46' E 005°21'611.6
2019-Aug-17 05:30N 58°40' E 005°25'611.5
2019-Aug-17 05:00N 58°35' E 005°31'611.7
2019-Aug-17 04:31N 58°31' E 005°37'611.4
2019-Aug-17 04:00N 58°26' E 005°44'511.0
2019-Aug-17 03:30N 58°22' E 005°52'510.6
2019-Aug-17 03:00N 58°19' E 005°59'510.8
2019-Aug-17 02:30N 58°15' E 006°07'511.0
2019-Aug-17 02:01N 58°11' E 006°14'611.3
2019-Aug-17 01:30N 58°07' E 006°22'511.2
2019-Aug-17 01:01N 58°04' E 006°30'510.8
2019-Aug-17 00:30N 58°00' E 006°38'510.4
2019-Aug-17 00:01N 57°57' E 006°46'5 9.8
2019-Aug-16 23:30N 57°55' E 006°54'5 9.6
2019-Aug-16 23:01N 57°53' E 007°02'5 9.2
2019-Aug-16 22:31N 57°53' E 007°11'4 7.8
2019-Aug-16 22:00N 57°53' E 007°18'4 8.1
2019-Aug-16 21:30N 57°54' E 007°26'4 8.2
2019-Aug-16 21:00N 57°54' E 007°34'4 7.8
2019-Aug-16 20:31N 57°55' E 007°40'4 8.0
2019-Aug-16 20:00N 57°57' E 007°47'4 8.0
2019-Aug-16 19:31N 57°58' E 007°54'4 8.1
2019-Aug-16 19:00N 57°59' E 008°01'4 7.5
2019-Aug-16 18:31N 58°01' E 008°08'4 7.4
2019-Aug-16 18:00N 58°02' E 008°15'4 7.3
2019-Aug-16 17:31N 58°04' E 008°20'3 6.9
2019-Aug-16 17:01N 58°06' E 008°25'3 6.1
2019-Aug-16 16:31N 58°08' E 008°30'3 5.1
2019-Aug-16 16:01N 58°10' E 008°33'2 4.4
2019-Aug-16 15:31N 58°12' E 008°36'2 3.9
2019-Aug-16 15:00N 58°13' E 008°38'2 4.0
2019-Aug-16 14:30N 58°15' E 008°40'2 4.6
2019-Aug-16 14:01N 58°17' E 008°43'3 5.3
2019-Aug-16 13:30N 58°19' E 008°45'3 5.8
2019-Aug-16 13:00N 58°22' E 008°47'3 5.5
2019-Aug-16 12:30N 58°25' E 008°47'3 4.9
2019-Aug-16 11:59N 58°27' E 008°47'0 0.7
2019-Aug-16 11:30N 58°27' E 008°46'0 0.0
2019-Aug-16 10:58N 58°27' E 008°46'0 0.0
2019-Aug-16 10:28N 58°27' E 008°46'0 0.0
2019-Aug-16 09:58N 58°27' E 008°46'0 0.0
2019-Aug-16 09:29N 58°27' E 008°46'0 0.0
2019-Aug-16 08:59N 58°27' E 008°46'0 0.0
2019-Aug-16 08:29N 58°27' E 008°46'0 0.0
2019-Aug-16 08:00N 58°27' E 008°46'0 0.0
2019-Aug-16 07:30N 58°27' E 008°46'0 0.0
2019-Aug-16 07:00N 58°27' E 008°46'0 0.0
2019-Aug-16 06:28N 58°27' E 008°46'0 0.0
2019-Aug-16 05:58N 58°27' E 008°46'0 0.0
2019-Aug-16 05:29N 58°27' E 008°46'0 0.0
2019-Aug-16 04:59N 58°27' E 008°46'0 0.0
2019-Aug-16 04:29N 58°27' E 008°46'0 0.0
2019-Aug-16 03:59N 58°28' E 008°46'0 0.0
2019-Aug-16 03:30N 58°27' E 008°46'0 0.0
2019-Aug-16 03:00N 58°27' E 008°46'0 0.0
2019-Aug-16 02:30N 58°27' E 008°46'0 0.0
2019-Aug-16 01:58N 58°28' E 008°46'0 0.0
2019-Aug-16 01:28N 58°27' E 008°46'0 0.0
2019-Aug-16 00:59N 58°27' E 008°46'0 0.0
2019-Aug-16 00:29N 58°27' E 008°46'0 0.0
2019-Aug-15 23:59N 58°27' E 008°46'0 0.0
2019-Aug-15 23:30N 58°27' E 008°46'0 0.0
2019-Aug-15 23:00N 58°27' E 008°46'0 0.0
2019-Aug-15 22:30N 58°27' E 008°46'0 0.0
2019-Aug-15 22:00N 58°27' E 008°46'0 0.0
2019-Aug-15 21:28N 58°27' E 008°46'0 0.0
2019-Aug-15 20:58N 58°27' E 008°46'0 0.0
2019-Aug-15 20:29N 58°27' E 008°46'0 0.0
2019-Aug-15 19:59N 58°27' E 008°46'0 0.0
2019-Aug-15 19:29N 58°27' E 008°46'0 0.0
2019-Aug-15 19:00N 58°27' E 008°46'0 0.0
2019-Aug-15 18:30N 58°27' E 008°46'0 0.0
2019-Aug-15 18:00N 58°27' E 008°46'0 0.0
2019-Aug-15 17:31N 58°27' E 008°46'0 0.0
2019-Aug-15 16:58N 58°27' E 008°46'0 0.0
2019-Aug-15 16:28N 58°27' E 008°46'0 0.0
2019-Aug-15 15:59N 58°27' E 008°46'0 0.0
2019-Aug-15 15:29N 58°27' E 008°46'0 0.0
2019-Aug-15 14:59N 58°27' E 008°46'0 0.0
2019-Aug-15 14:30N 58°27' E 008°46'0 0.0
2019-Aug-15 14:00N 58°27' E 008°46'0 0.0
2019-Aug-15 13:30N 58°27' E 008°46'0 0.0
2019-Aug-15 12:58N 58°27' E 008°46'0 0.0
2019-Aug-15 12:28N 58°27' E 008°46'0 0.0
2019-Aug-15 11:58N 58°27' E 008°46'0 0.0
2019-Aug-15 11:29N 58°27' E 008°46'0 0.0
2019-Aug-15 10:59N 58°27' E 008°46'0 0.0
2019-Aug-15 10:29N 58°27' E 008°46'0 0.0
2019-Aug-15 10:00N 58°27' E 008°46'0 0.0
2019-Aug-15 09:30N 58°27' E 008°46'0 0.0
2019-Aug-15 08:57N 58°27' E 008°46'0 0.0
2019-Aug-15 08:28N 58°27' E 008°46'0 0.0
2019-Aug-15 07:58N 58°27' E 008°46'0 0.0
2019-Aug-15 07:28N 58°27' E 008°46'0 0.0
2019-Aug-15 06:59N 58°27' E 008°46'0 0.0
2019-Aug-15 06:29N 58°27' E 008°46'0 0.0
2019-Aug-15 05:59N 58°27' E 008°46'0 0.0
2019-Aug-15 05:30N 58°27' E 008°46'0 0.0
2019-Aug-15 05:00N 58°27' E 008°46'0 0.0
2019-Aug-15 04:30N 58°27' E 008°46'0 0.0
2019-Aug-15 03:58N 58°27' E 008°46'0 0.0
2019-Aug-15 03:28N 58°27' E 008°46'0 0.0
2019-Aug-15 02:58N 58°27' E 008°46'0 0.0
2019-Aug-15 02:29N 58°27' E 008°46'0 0.0
2019-Aug-15 01:59N 58°27' E 008°46'0 0.0
2019-Aug-15 01:29N 58°27' E 008°46'0 0.0
2019-Aug-15 01:00N 58°27' E 008°46'0 0.0
2019-Aug-15 00:30N 58°27' E 008°46'0 0.0
2019-Aug-15 00:00N 58°27' E 008°46'0 0.0
2019-Aug-14 23:28N 58°27' E 008°46'0 0.0
2019-Aug-14 22:58N 58°27' E 008°46'0 0.0
2019-Aug-14 22:28N 58°27' E 008°46'0 0.0
2019-Aug-14 21:59N 58°27' E 008°46'0 0.0
2019-Aug-14 21:29N 58°27' E 008°46'0 0.0
2019-Aug-14 20:59N 58°27' E 008°46'0 0.0
2019-Aug-14 20:30N 58°27' E 008°46'0 0.0
2019-Aug-14 20:00N 58°27' E 008°46'0 0.0
2019-Aug-14 19:30N 58°27' E 008°46'  

Dump ship's entire track history